sensor_id;sensor_type;location;lat;lon;timestamp;P1;durP1;ratioP1;P2;durP2;ratioP2
14235;SDS011;7202;50.718;7.072;2022-12-18T00:00:07;15.60;;;8.97;;
14235;SDS011;7202;50.718;7.072;2022-12-18T00:02:41;18.13;;;9.87;;
14235;SDS011;7202;50.718;7.072;2022-12-18T00:05:10;22.00;;;9.73;;
14235;SDS011;7202;50.718;7.072;2022-12-18T00:07:39;21.13;;;10.63;;
14235;SDS011;7202;50.718;7.072;2022-12-18T00:10:08;17.10;;;9.80;;
14235;SDS011;7202;50.718;7.072;2022-12-18T00:12:41;17.67;;;9.43;;
14235;SDS011;7202;50.718;7.072;2022-12-18T00:15:09;19.00;;;10.23;;
14235;SDS011;7202;50.718;7.072;2022-12-18T00:17:38;20.50;;;10.20;;
14235;SDS011;7202;50.718;7.072;2022-12-18T00:20:09;22.10;;;11.07;;
14235;SDS011;7202;50.718;7.072;2022-12-18T00:22:38;15.53;;;8.70;;
14235;SDS011;7202;50.718;7.072;2022-12-18T00:25:07;16.40;;;9.50;;
14235;SDS011;7202;50.718;7.072;2022-12-18T00:27:36;19.17;;;9.80;;
14235;SDS011;7202;50.718;7.072;2022-12-18T00:30:05;19.23;;;10.43;;
14235;SDS011;7202;50.718;7.072;2022-12-18T00:32:35;21.23;;;10.30;;
14235;SDS011;7202;50.718;7.072;2022-12-18T00:35:04;20.20;;;10.37;;
14235;SDS011;7202;50.718;7.072;2022-12-18T00:37:35;22.97;;;10.57;;
14235;SDS011;7202;50.718;7.072;2022-12-18T00:40:05;18.77;;;9.97;;
14235;SDS011;7202;50.718;7.072;2022-12-18T00:42:36;22.27;;;10.40;;
14235;SDS011;7202;50.718;7.072;2022-12-18T00:45:34;21.33;;;10.37;;
14235;SDS011;7202;50.718;7.072;2022-12-18T00:48:03;23.00;;;11.53;;
14235;SDS011;7202;50.718;7.072;2022-12-18T00:50:31;18.77;;;10.30;;
14235;SDS011;7202;50.718;7.072;2022-12-18T00:53:01;21.07;;;10.47;;
14235;SDS011;7202;50.718;7.072;2022-12-18T00:55:30;25.13;;;11.90;;
14235;SDS011;7202;50.718;7.072;2022-12-18T00:57:59;24.33;;;12.80;;
14235;SDS011;7202;50.718;7.072;2022-12-18T01:00:28;26.97;;;11.73;;
14235;SDS011;7202;50.718;7.072;2022-12-18T01:02:56;23.13;;;11.60;;
14235;SDS011;7202;50.718;7.072;2022-12-18T01:05:25;23.37;;;12.07;;
14235;SDS011;7202;50.718;7.072;2022-12-18T01:07:54;23.53;;;12.27;;
14235;SDS011;7202;50.718;7.072;2022-12-18T01:10:25;23.60;;;11.93;;
14235;SDS011;7202;50.718;7.072;2022-12-18T01:12:56;24.27;;;12.60;;
14235;SDS011;7202;50.718;7.072;2022-12-18T01:15:25;25.63;;;11.83;;
14235;SDS011;7202;50.718;7.072;2022-12-18T01:17:54;21.30;;;11.33;;
14235;SDS011;7202;50.718;7.072;2022-12-18T01:20:22;23.00;;;13.13;;
14235;SDS011;7202;50.718;7.072;2022-12-18T01:22:51;24.93;;;12.80;;
14235;SDS011;7202;50.718;7.072;2022-12-18T01:25:20;24.27;;;12.13;;
14235;SDS011;7202;50.718;7.072;2022-12-18T01:27:51;27.43;;;12.40;;
14235;SDS011;7202;50.718;7.072;2022-12-18T01:30:20;27.87;;;13.40;;
14235;SDS011;7202;50.718;7.072;2022-12-18T01:32:48;27.27;;;13.37;;
14235;SDS011;7202;50.718;7.072;2022-12-18T01:35:17;25.30;;;12.77;;
14235;SDS011;7202;50.718;7.072;2022-12-18T01:37:45;28.10;;;13.20;;
14235;SDS011;7202;50.718;7.072;2022-12-18T01:40:14;26.80;;;12.80;;
14235;SDS011;7202;50.718;7.072;2022-12-18T01:42:43;28.97;;;13.07;;
14235;SDS011;7202;50.718;7.072;2022-12-18T01:45:26;32.00;;;13.97;;
14235;SDS011;7202;50.718;7.072;2022-12-18T01:47:57;25.47;;;13.13;;
14235;SDS011;7202;50.718;7.072;2022-12-18T01:50:28;26.30;;;12.40;;
14235;SDS011;7202;50.718;7.072;2022-12-18T01:53:02;26.60;;;12.90;;
14235;SDS011;7202;50.718;7.072;2022-12-18T01:55:35;23.33;;;12.33;;
14235;SDS011;7202;50.718;7.072;2022-12-18T01:58:06;24.83;;;12.47;;
14235;SDS011;7202;50.718;7.072;2022-12-18T02:00:36;20.33;;;12.13;;
14235;SDS011;7202;50.718;7.072;2022-12-18T02:03:05;26.40;;;13.10;;
14235;SDS011;7202;50.718;7.072;2022-12-18T02:05:36;29.10;;;15.10;;
14235;SDS011;7202;50.718;7.072;2022-12-18T02:08:13;28.03;;;13.53;;
14235;SDS011;7202;50.718;7.072;2022-12-18T02:10:48;26.97;;;13.13;;
14235;SDS011;7202;50.718;7.072;2022-12-18T02:13:26;26.23;;;13.60;;
14235;SDS011;7202;50.718;7.072;2022-12-18T02:16:05;25.40;;;12.47;;
14235;SDS011;7202;50.718;7.072;2022-12-18T02:18:43;25.17;;;12.63;;
14235;SDS011;7202;50.718;7.072;2022-12-18T02:21:20;26.90;;;13.77;;
14235;SDS011;7202;50.718;7.072;2022-12-18T02:23:56;22.80;;;12.53;;
14235;SDS011;7202;50.718;7.072;2022-12-18T02:26:40;23.17;;;11.57;;
14235;SDS011;7202;50.718;7.072;2022-12-18T02:29:13;26.23;;;12.10;;
14235;SDS011;7202;50.718;7.072;2022-12-18T02:31:46;21.90;;;11.63;;
14235;SDS011;7202;50.718;7.072;2022-12-18T02:34:19;25.83;;;11.27;;
14235;SDS011;7202;50.718;7.072;2022-12-18T02:36:51;24.57;;;11.03;;
14235;SDS011;7202;50.718;7.072;2022-12-18T02:39:25;24.90;;;12.30;;
14235;SDS011;7202;50.718;7.072;2022-12-18T02:42:03;28.17;;;12.50;;
14235;SDS011;7202;50.718;7.072;2022-12-18T02:44:35;29.80;;;13.30;;
14235;SDS011;7202;50.718;7.072;2022-12-18T02:47:11;24.57;;;12.70;;
14235;SDS011;7202;50.718;7.072;2022-12-18T02:49:43;29.50;;;13.23;;
14235;SDS011;7202;50.718;7.072;2022-12-18T02:52:24;26.40;;;12.47;;
14235;SDS011;7202;50.718;7.072;2022-12-18T02:55:06;20.83;;;11.10;;
14235;SDS011;7202;50.718;7.072;2022-12-18T02:57:46;27.37;;;12.77;;
14235;SDS011;7202;50.718;7.072;2022-12-18T03:00:24;21.17;;;10.77;;
14235;SDS011;7202;50.718;7.072;2022-12-18T03:02:57;26.33;;;11.43;;
14235;SDS011;7202;50.718;7.072;2022-12-18T03:05:35;25.03;;;11.47;;
14235;SDS011;7202;50.718;7.072;2022-12-18T03:08:07;25.00;;;12.33;;
14235;SDS011;7202;50.718;7.072;2022-12-18T03:10:41;30.43;;;13.63;;
14235;SDS011;7202;50.718;7.072;2022-12-18T03:13:20;24.63;;;12.23;;
14235;SDS011;7202;50.718;7.072;2022-12-18T03:15:53;23.83;;;12.17;;
14235;SDS011;7202;50.718;7.072;2022-12-18T03:18:25;27.50;;;12.67;;
14235;SDS011;7202;50.718;7.072;2022-12-18T03:20:58;25.03;;;11.67;;
14235;SDS011;7202;50.718;7.072;2022-12-18T03:23:34;22.57;;;11.77;;
14235;SDS011;7202;50.718;7.072;2022-12-18T03:26:10;23.57;;;12.73;;
14235;SDS011;7202;50.718;7.072;2022-12-18T03:28:45;24.03;;;12.93;;
14235;SDS011;7202;50.718;7.072;2022-12-18T03:31:19;26.73;;;13.57;;
14235;SDS011;7202;50.718;7.072;2022-12-18T03:33:51;21.27;;;11.13;;
14235;SDS011;7202;50.718;7.072;2022-12-18T03:36:27;25.00;;;12.53;;
14235;SDS011;7202;50.718;7.072;2022-12-18T03:38:56;28.27;;;12.73;;
14235;SDS011;7202;50.718;7.072;2022-12-18T03:41:27;28.60;;;13.07;;
14235;SDS011;7202;50.718;7.072;2022-12-18T03:44:20;26.10;;;11.57;;
14235;SDS011;7202;50.718;7.072;2022-12-18T03:46:56;25.23;;;11.83;;
14235;SDS011;7202;50.718;7.072;2022-12-18T03:49:30;28.50;;;12.50;;
14235;SDS011;7202;50.718;7.072;2022-12-18T03:52:05;29.73;;;13.63;;
14235;SDS011;7202;50.718;7.072;2022-12-18T03:54:40;29.07;;;13.40;;
14235;SDS011;7202;50.718;7.072;2022-12-18T03:57:15;25.20;;;12.03;;
14235;SDS011;7202;50.718;7.072;2022-12-18T03:59:50;26.40;;;12.87;;
14235;SDS011;7202;50.718;7.072;2022-12-18T04:02:25;22.87;;;12.50;;
14235;SDS011;7202;50.718;7.072;2022-12-18T04:04:58;25.43;;;11.83;;
14235;SDS011;7202;50.718;7.072;2022-12-18T04:07:30;27.00;;;12.30;;
14235;SDS011;7202;50.718;7.072;2022-12-18T04:10:00;24.27;;;12.53;;
14235;SDS011;7202;50.718;7.072;2022-12-18T04:12:31;25.03;;;11.97;;
14235;SDS011;7202;50.718;7.072;2022-12-18T04:15:01;26.20;;;11.73;;
14235;SDS011;7202;50.718;7.072;2022-12-18T04:17:30;29.23;;;13.27;;
14235;SDS011;7202;50.718;7.072;2022-12-18T04:20:00;23.00;;;11.80;;
14235;SDS011;7202;50.718;7.072;2022-12-18T04:22:30;25.40;;;12.10;;
14235;SDS011;7202;50.718;7.072;2022-12-18T04:24:59;24.07;;;11.13;;
14235;SDS011;7202;50.718;7.072;2022-12-18T04:27:35;23.73;;;11.70;;
14235;SDS011;7202;50.718;7.072;2022-12-18T04:30:06;22.23;;;11.23;;
14235;SDS011;7202;50.718;7.072;2022-12-18T04:32:36;26.60;;;12.83;;
14235;SDS011;7202;50.718;7.072;2022-12-18T04:35:04;30.30;;;13.70;;
14235;SDS011;7202;50.718;7.072;2022-12-18T04:37:38;28.77;;;13.00;;
14235;SDS011;7202;50.718;7.072;2022-12-18T04:40:07;26.50;;;12.47;;
14235;SDS011;7202;50.718;7.072;2022-12-18T04:42:41;28.17;;;14.07;;
14235;SDS011;7202;50.718;7.072;2022-12-18T04:45:11;26.37;;;12.80;;
14235;SDS011;7202;50.718;7.072;2022-12-18T04:47:39;29.27;;;14.03;;
14235;SDS011;7202;50.718;7.072;2022-12-18T04:50:08;29.10;;;14.87;;
14235;SDS011;7202;50.718;7.072;2022-12-18T04:52:37;30.07;;;13.80;;
14235;SDS011;7202;50.718;7.072;2022-12-18T04:55:05;25.07;;;12.23;;
14235;SDS011;7202;50.718;7.072;2022-12-18T04:57:34;28.13;;;13.10;;
14235;SDS011;7202;50.718;7.072;2022-12-18T05:00:03;33.63;;;15.47;;
14235;SDS011;7202;50.718;7.072;2022-12-18T05:02:34;30.90;;;14.20;;
14235;SDS011;7202;50.718;7.072;2022-12-18T05:05:03;32.70;;;14.87;;
14235;SDS011;7202;50.718;7.072;2022-12-18T05:07:33;28.87;;;14.17;;
14235;SDS011;7202;50.718;7.072;2022-12-18T05:10:01;34.47;;;14.47;;
14235;SDS011;7202;50.718;7.072;2022-12-18T05:12:31;34.80;;;15.40;;
14235;SDS011;7202;50.718;7.072;2022-12-18T05:15:03;29.83;;;14.47;;
14235;SDS011;7202;50.718;7.072;2022-12-18T05:17:34;33.63;;;14.87;;
14235;SDS011;7202;50.718;7.072;2022-12-18T05:20:02;34.07;;;15.20;;
14235;SDS011;7202;50.718;7.072;2022-12-18T05:22:31;29.73;;;14.57;;
14235;SDS011;7202;50.718;7.072;2022-12-18T05:25:00;28.33;;;13.40;;
14235;SDS011;7202;50.718;7.072;2022-12-18T05:27:29;33.90;;;14.67;;
14235;SDS011;7202;50.718;7.072;2022-12-18T05:29:57;26.70;;;13.80;;
14235;SDS011;7202;50.718;7.072;2022-12-18T05:32:26;24.57;;;13.87;;
14235;SDS011;7202;50.718;7.072;2022-12-18T05:34:56;28.27;;;13.80;;
14235;SDS011;7202;50.718;7.072;2022-12-18T05:37:24;27.47;;;13.80;;
14235;SDS011;7202;50.718;7.072;2022-12-18T05:39:53;29.67;;;15.27;;
14235;SDS011;7202;50.718;7.072;2022-12-18T05:42:21;26.07;;;14.63;;
14235;SDS011;7202;50.718;7.072;2022-12-18T05:44:50;27.90;;;15.60;;
14235;SDS011;7202;50.718;7.072;2022-12-18T05:47:18;28.67;;;13.97;;
14235;SDS011;7202;50.718;7.072;2022-12-18T05:49:47;29.53;;;14.30;;
14235;SDS011;7202;50.718;7.072;2022-12-18T05:52:17;24.93;;;14.70;;
14235;SDS011;7202;50.718;7.072;2022-12-18T05:54:45;26.80;;;14.30;;
14235;SDS011;7202;50.718;7.072;2022-12-18T05:57:14;27.03;;;14.47;;
14235;SDS011;7202;50.718;7.072;2022-12-18T05:59:43;31.27;;;14.87;;
14235;SDS011;7202;50.718;7.072;2022-12-18T06:02:11;31.23;;;14.50;;
14235;SDS011;7202;50.718;7.072;2022-12-18T06:04:40;30.47;;;14.97;;
14235;SDS011;7202;50.718;7.072;2022-12-18T06:07:09;30.83;;;14.83;;
14235;SDS011;7202;50.718;7.072;2022-12-18T06:09:39;30.53;;;15.43;;
14235;SDS011;7202;50.718;7.072;2022-12-18T06:12:07;31.00;;;14.13;;
14235;SDS011;7202;50.718;7.072;2022-12-18T06:14:37;30.70;;;15.37;;
14235;SDS011;7202;50.718;7.072;2022-12-18T06:17:06;34.93;;;14.97;;
14235;SDS011;7202;50.718;7.072;2022-12-18T06:19:34;29.23;;;14.63;;
14235;SDS011;7202;50.718;7.072;2022-12-18T06:22:03;25.90;;;14.77;;
14235;SDS011;7202;50.718;7.072;2022-12-18T06:24:32;30.80;;;14.40;;
14235;SDS011;7202;50.718;7.072;2022-12-18T06:27:02;28.23;;;14.10;;
14235;SDS011;7202;50.718;7.072;2022-12-18T06:29:31;30.50;;;14.50;;
14235;SDS011;7202;50.718;7.072;2022-12-18T06:31:59;29.30;;;15.27;;
14235;SDS011;7202;50.718;7.072;2022-12-18T06:34:28;30.87;;;13.93;;
14235;SDS011;7202;50.718;7.072;2022-12-18T06:36:57;33.03;;;14.83;;
14235;SDS011;7202;50.718;7.072;2022-12-18T06:39:26;29.70;;;14.73;;
14235;SDS011;7202;50.718;7.072;2022-12-18T06:41:55;29.17;;;15.07;;
14235;SDS011;7202;50.718;7.072;2022-12-18T06:44:25;29.40;;;14.27;;
14235;SDS011;7202;50.718;7.072;2022-12-18T06:46:53;31.37;;;14.37;;
14235;SDS011;7202;50.718;7.072;2022-12-18T06:49:23;29.63;;;14.83;;
14235;SDS011;7202;50.718;7.072;2022-12-18T06:51:56;29.50;;;13.83;;
14235;SDS011;7202;50.718;7.072;2022-12-18T06:54:25;28.90;;;13.27;;
14235;SDS011;7202;50.718;7.072;2022-12-18T06:56:53;31.17;;;14.93;;
14235;SDS011;7202;50.718;7.072;2022-12-18T06:59:22;33.17;;;16.07;;
14235;SDS011;7202;50.718;7.072;2022-12-18T07:01:53;26.57;;;13.93;;
14235;SDS011;7202;50.718;7.072;2022-12-18T07:04:22;31.47;;;14.50;;
14235;SDS011;7202;50.718;7.072;2022-12-18T07:06:55;26.97;;;14.43;;
14235;SDS011;7202;50.718;7.072;2022-12-18T07:09:24;33.03;;;15.13;;
14235;SDS011;7202;50.718;7.072;2022-12-18T07:11:55;28.80;;;14.93;;
14235;SDS011;7202;50.718;7.072;2022-12-18T07:14:24;36.30;;;15.80;;
14235;SDS011;7202;50.718;7.072;2022-12-18T07:16:53;30.07;;;15.77;;
14235;SDS011;7202;50.718;7.072;2022-12-18T07:19:24;29.20;;;14.63;;
14235;SDS011;7202;50.718;7.072;2022-12-18T07:21:52;31.67;;;16.03;;
14235;SDS011;7202;50.718;7.072;2022-12-18T07:24:21;26.87;;;14.20;;
14235;SDS011;7202;50.718;7.072;2022-12-18T07:26:49;30.17;;;14.13;;
14235;SDS011;7202;50.718;7.072;2022-12-18T07:29:18;30.97;;;15.13;;
14235;SDS011;7202;50.718;7.072;2022-12-18T07:31:46;25.90;;;13.57;;
14235;SDS011;7202;50.718;7.072;2022-12-18T07:34:17;27.43;;;14.07;;
14235;SDS011;7202;50.718;7.072;2022-12-18T07:36:46;28.00;;;14.23;;
14235;SDS011;7202;50.718;7.072;2022-12-18T07:39:14;29.47;;;14.57;;
14235;SDS011;7202;50.718;7.072;2022-12-18T07:41:43;30.17;;;14.90;;
14235;SDS011;7202;50.718;7.072;2022-12-18T07:44:32;35.03;;;15.27;;
14235;SDS011;7202;50.718;7.072;2022-12-18T07:47:01;29.70;;;14.93;;
14235;SDS011;7202;50.718;7.072;2022-12-18T07:49:37;30.00;;;13.73;;
14235;SDS011;7202;50.718;7.072;2022-12-18T07:52:06;31.63;;;15.97;;
14235;SDS011;7202;50.718;7.072;2022-12-18T07:54:36;28.43;;;15.43;;
14235;SDS011;7202;50.718;7.072;2022-12-18T07:57:04;28.77;;;14.93;;
14235;SDS011;7202;50.718;7.072;2022-12-18T07:59:53;34.57;;;15.40;;
14235;SDS011;7202;50.718;7.072;2022-12-18T08:02:22;29.60;;;15.47;;
14235;SDS011;7202;50.718;7.072;2022-12-18T08:04:52;29.97;;;14.60;;
14235;SDS011;7202;50.718;7.072;2022-12-18T08:07:20;29.50;;;15.17;;
14235;SDS011;7202;50.718;7.072;2022-12-18T08:09:49;28.57;;;15.73;;
14235;SDS011;7202;50.718;7.072;2022-12-18T08:12:18;31.47;;;15.73;;
14235;SDS011;7202;50.718;7.072;2022-12-18T08:14:46;27.00;;;14.07;;
14235;SDS011;7202;50.718;7.072;2022-12-18T08:17:15;31.90;;;15.50;;
14235;SDS011;7202;50.718;7.072;2022-12-18T08:19:44;31.90;;;15.40;;
14235;SDS011;7202;50.718;7.072;2022-12-18T08:22:13;28.83;;;14.87;;
14235;SDS011;7202;50.718;7.072;2022-12-18T08:24:42;26.10;;;13.93;;
14235;SDS011;7202;50.718;7.072;2022-12-18T08:27:11;32.20;;;15.67;;
14235;SDS011;7202;50.718;7.072;2022-12-18T08:29:55;25.33;;;14.40;;
14235;SDS011;7202;50.718;7.072;2022-12-18T08:32:25;30.50;;;15.20;;
14235;SDS011;7202;50.718;7.072;2022-12-18T08:34:54;29.67;;;15.27;;
14235;SDS011;7202;50.718;7.072;2022-12-18T08:37:24;29.43;;;15.47;;
14235;SDS011;7202;50.718;7.072;2022-12-18T08:39:53;27.93;;;14.73;;
14235;SDS011;7202;50.718;7.072;2022-12-18T08:42:22;28.90;;;14.97;;
14235;SDS011;7202;50.718;7.072;2022-12-18T08:45:08;29.83;;;14.87;;
14235;SDS011;7202;50.718;7.072;2022-12-18T08:47:37;30.13;;;14.63;;
14235;SDS011;7202;50.718;7.072;2022-12-18T08:50:06;30.60;;;14.77;;
14235;SDS011;7202;50.718;7.072;2022-12-18T08:52:36;25.60;;;14.20;;
14235;SDS011;7202;50.718;7.072;2022-12-18T08:55:05;27.97;;;13.93;;
14235;SDS011;7202;50.718;7.072;2022-12-18T08:57:35;22.80;;;12.07;;
14235;SDS011;7202;50.718;7.072;2022-12-18T09:00:04;26.53;;;13.93;;
14235;SDS011;7202;50.718;7.072;2022-12-18T09:02:33;26.83;;;14.03;;
14235;SDS011;7202;50.718;7.072;2022-12-18T09:05:02;27.53;;;13.73;;
14235;SDS011;7202;50.718;7.072;2022-12-18T09:07:31;28.00;;;15.23;;
14235;SDS011;7202;50.718;7.072;2022-12-18T09:10:01;25.73;;;13.20;;
14235;SDS011;7202;50.718;7.072;2022-12-18T09:12:30;34.00;;;15.97;;
14235;SDS011;7202;50.718;7.072;2022-12-18T09:14:59;28.87;;;14.93;;
14235;SDS011;7202;50.718;7.072;2022-12-18T09:17:27;26.03;;;14.60;;
14235;SDS011;7202;50.718;7.072;2022-12-18T09:19:56;29.63;;;15.07;;
14235;SDS011;7202;50.718;7.072;2022-12-18T09:22:25;27.50;;;14.90;;
14235;SDS011;7202;50.718;7.072;2022-12-18T09:24:53;26.70;;;14.17;;
14235;SDS011;7202;50.718;7.072;2022-12-18T09:27:23;27.60;;;13.57;;
14235;SDS011;7202;50.718;7.072;2022-12-18T09:29:52;29.23;;;14.00;;
14235;SDS011;7202;50.718;7.072;2022-12-18T09:32:21;25.10;;;14.17;;
14235;SDS011;7202;50.718;7.072;2022-12-18T09:34:49;26.63;;;13.93;;
14235;SDS011;7202;50.718;7.072;2022-12-18T09:37:18;27.43;;;14.20;;
14235;SDS011;7202;50.718;7.072;2022-12-18T09:39:46;29.80;;;13.60;;
14235;SDS011;7202;50.718;7.072;2022-12-18T09:42:17;28.97;;;15.20;;
14235;SDS011;7202;50.718;7.072;2022-12-18T09:44:52;25.57;;;13.60;;
14235;SDS011;7202;50.718;7.072;2022-12-18T09:47:23;26.13;;;14.77;;
14235;SDS011;7202;50.718;7.072;2022-12-18T09:49:56;27.40;;;14.80;;
14235;SDS011;7202;50.718;7.072;2022-12-18T09:52:28;24.90;;;14.03;;
14235;SDS011;7202;50.718;7.072;2022-12-18T09:55:00;29.10;;;14.87;;
14235;SDS011;7202;50.718;7.072;2022-12-18T09:57:33;30.53;;;15.60;;
14235;SDS011;7202;50.718;7.072;2022-12-18T10:00:13;31.27;;;15.10;;
14235;SDS011;7202;50.718;7.072;2022-12-18T10:02:46;25.07;;;14.33;;
14235;SDS011;7202;50.718;7.072;2022-12-18T10:05:15;26.07;;;14.70;;
14235;SDS011;7202;50.718;7.072;2022-12-18T10:07:50;33.13;;;16.23;;
14235;SDS011;7202;50.718;7.072;2022-12-18T10:10:31;25.57;;;14.87;;
14235;SDS011;7202;50.718;7.072;2022-12-18T10:13:08;24.77;;;13.83;;
14235;SDS011;7202;50.718;7.072;2022-12-18T10:15:47;29.00;;;14.60;;
14235;SDS011;7202;50.718;7.072;2022-12-18T10:18:29;26.37;;;15.07;;
14235;SDS011;7202;50.718;7.072;2022-12-18T10:21:16;26.17;;;14.63;;
14235;SDS011;7202;50.718;7.072;2022-12-18T10:23:48;30.23;;;14.37;;
14235;SDS011;7202;50.718;7.072;2022-12-18T10:26:25;28.43;;;15.60;;
14235;SDS011;7202;50.718;7.072;2022-12-18T10:28:54;27.93;;;15.20;;
14235;SDS011;7202;50.718;7.072;2022-12-18T10:31:32;30.23;;;16.10;;
14235;SDS011;7202;50.718;7.072;2022-12-18T10:34:01;28.33;;;15.40;;
14235;SDS011;7202;50.718;7.072;2022-12-18T10:36:30;26.03;;;15.23;;
14235;SDS011;7202;50.718;7.072;2022-12-18T10:39:03;29.37;;;14.97;;
14235;SDS011;7202;50.718;7.072;2022-12-18T10:41:43;28.93;;;15.13;;
14235;SDS011;7202;50.718;7.072;2022-12-18T10:44:21;28.27;;;15.93;;
14235;SDS011;7202;50.718;7.072;2022-12-18T10:46:53;33.70;;;17.27;;
14235;SDS011;7202;50.718;7.072;2022-12-18T10:49:24;28.97;;;14.87;;
14235;SDS011;7202;50.718;7.072;2022-12-18T10:52:04;27.67;;;16.63;;
14235;SDS011;7202;50.718;7.072;2022-12-18T10:54:34;27.00;;;16.00;;
14235;SDS011;7202;50.718;7.072;2022-12-18T10:57:16;31.70;;;16.33;;
14235;SDS011;7202;50.718;7.072;2022-12-18T10:59:57;26.00;;;13.80;;
14235;SDS011;7202;50.718;7.072;2022-12-18T11:02:33;26.87;;;14.67;;
14235;SDS011;7202;50.718;7.072;2022-12-18T11:05:05;28.97;;;16.70;;
14235;SDS011;7202;50.718;7.072;2022-12-18T11:07:52;25.57;;;14.87;;
14235;SDS011;7202;50.718;7.072;2022-12-18T11:10:22;32.33;;;17.07;;
14235;SDS011;7202;50.718;7.072;2022-12-18T11:12:55;30.40;;;16.00;;
14235;SDS011;7202;50.718;7.072;2022-12-18T11:15:36;24.03;;;14.23;;
14235;SDS011;7202;50.718;7.072;2022-12-18T11:18:16;28.23;;;16.00;;
14235;SDS011;7202;50.718;7.072;2022-12-18T11:20:51;28.53;;;14.40;;
14235;SDS011;7202;50.718;7.072;2022-12-18T11:23:25;26.20;;;16.27;;
14235;SDS011;7202;50.718;7.072;2022-12-18T11:25:56;29.30;;;15.90;;
14235;SDS011;7202;50.718;7.072;2022-12-18T11:28:36;25.83;;;15.10;;
14235;SDS011;7202;50.718;7.072;2022-12-18T11:31:15;34.37;;;16.77;;
14235;SDS011;7202;50.718;7.072;2022-12-18T11:33:50;26.13;;;14.80;;
14235;SDS011;7202;50.718;7.072;2022-12-18T11:36:52;28.23;;;15.13;;
14235;SDS011;7202;50.718;7.072;2022-12-18T11:39:25;27.73;;;14.50;;
14235;SDS011;7202;50.718;7.072;2022-12-18T11:42:00;29.57;;;16.33;;
14235;SDS011;7202;50.718;7.072;2022-12-18T11:44:44;29.67;;;16.23;;
14235;SDS011;7202;50.718;7.072;2022-12-18T11:47:19;29.27;;;15.87;;
14235;SDS011;7202;50.718;7.072;2022-12-18T11:49:54;34.10;;;17.10;;
14235;SDS011;7202;50.718;7.072;2022-12-18T11:52:27;30.33;;;15.57;;
14235;SDS011;7202;50.718;7.072;2022-12-18T11:55:00;30.73;;;15.93;;
14235;SDS011;7202;50.718;7.072;2022-12-18T11:57:37;27.03;;;15.77;;
14235;SDS011;7202;50.718;7.072;2022-12-18T12:00:20;27.70;;;14.73;;
14235;SDS011;7202;50.718;7.072;2022-12-18T12:05:55;28.90;;;15.80;;
14235;SDS011;7202;50.718;7.072;2022-12-18T12:08:35;30.37;;;16.57;;
14235;SDS011;7202;50.718;7.072;2022-12-18T12:11:13;30.57;;;16.23;;
14235;SDS011;7202;50.718;7.072;2022-12-18T12:13:53;29.97;;;15.47;;
14235;SDS011;7202;50.718;7.072;2022-12-18T12:16:32;33.13;;;16.93;;
14235;SDS011;7202;50.718;7.072;2022-12-18T12:19:10;24.30;;;15.13;;
14235;SDS011;7202;50.718;7.072;2022-12-18T12:21:55;29.23;;;16.60;;
14235;SDS011;7202;50.718;7.072;2022-12-18T12:24:35;28.67;;;15.63;;
14235;SDS011;7202;50.718;7.072;2022-12-18T12:27:13;30.40;;;16.53;;
14235;SDS011;7202;50.718;7.072;2022-12-18T12:29:50;29.57;;;16.83;;
14235;SDS011;7202;50.718;7.072;2022-12-18T12:32:33;27.83;;;16.83;;
14235;SDS011;7202;50.718;7.072;2022-12-18T12:35:17;28.73;;;15.93;;
14235;SDS011;7202;50.718;7.072;2022-12-18T12:37:56;32.23;;;16.77;;
14235;SDS011;7202;50.718;7.072;2022-12-18T12:40:33;28.27;;;16.47;;
14235;SDS011;7202;50.718;7.072;2022-12-18T12:43:26;32.17;;;16.57;;
14235;SDS011;7202;50.718;7.072;2022-12-18T12:45:58;30.63;;;16.33;;
14235;SDS011;7202;50.718;7.072;2022-12-18T12:48:35;33.80;;;17.17;;
14235;SDS011;7202;50.718;7.072;2022-12-18T12:51:11;29.23;;;16.33;;
14235;SDS011;7202;50.718;7.072;2022-12-18T12:53:45;31.63;;;16.63;;
14235;SDS011;7202;50.718;7.072;2022-12-18T12:56:15;33.20;;;16.93;;
14235;SDS011;7202;50.718;7.072;2022-12-18T12:58:49;28.53;;;16.80;;
14235;SDS011;7202;50.718;7.072;2022-12-18T13:01:28;30.33;;;16.60;;
14235;SDS011;7202;50.718;7.072;2022-12-18T13:04:08;34.73;;;16.63;;
14235;SDS011;7202;50.718;7.072;2022-12-18T13:06:48;27.17;;;16.40;;
14235;SDS011;7202;50.718;7.072;2022-12-18T13:09:22;35.33;;;16.90;;
14235;SDS011;7202;50.718;7.072;2022-12-18T13:11:51;29.47;;;16.20;;
14235;SDS011;7202;50.718;7.072;2022-12-18T13:14:38;28.93;;;16.77;;
14235;SDS011;7202;50.718;7.072;2022-12-18T13:20:09;27.43;;;16.63;;
14235;SDS011;7202;50.718;7.072;2022-12-18T13:22:43;30.67;;;16.73;;
14235;SDS011;7202;50.718;7.072;2022-12-18T13:25:31;32.30;;;17.53;;
14235;SDS011;7202;50.718;7.072;2022-12-18T13:28:04;37.97;;;18.43;;
14235;SDS011;7202;50.718;7.072;2022-12-18T13:30:45;31.20;;;16.87;;
14235;SDS011;7202;50.718;7.072;2022-12-18T13:36:35;32.40;;;18.13;;
14235;SDS011;7202;50.718;7.072;2022-12-18T13:45:36;36.80;;;18.87;;
14235;SDS011;7202;50.718;7.072;2022-12-18T13:48:17;36.07;;;17.43;;
14235;SDS011;7202;50.718;7.072;2022-12-18T13:50:55;34.83;;;17.63;;
14235;SDS011;7202;50.718;7.072;2022-12-18T13:53:27;30.03;;;16.67;;
14235;SDS011;7202;50.718;7.072;2022-12-18T13:55:58;28.77;;;15.57;;
14235;SDS011;7202;50.718;7.072;2022-12-18T13:58:29;31.80;;;17.37;;
14235;SDS011;7202;50.718;7.072;2022-12-18T14:00:57;33.60;;;18.03;;
14235;SDS011;7202;50.718;7.072;2022-12-18T14:03:29;42.23;;;18.43;;
14235;SDS011;7202;50.718;7.072;2022-12-18T14:06:02;33.10;;;18.20;;
14235;SDS011;7202;50.718;7.072;2022-12-18T14:08:36;35.50;;;18.33;;
14235;SDS011;7202;50.718;7.072;2022-12-18T14:11:08;29.57;;;17.13;;
14235;SDS011;7202;50.718;7.072;2022-12-18T14:13:50;36.20;;;17.27;;
14235;SDS011;7202;50.718;7.072;2022-12-18T14:16:18;34.03;;;17.33;;
14235;SDS011;7202;50.718;7.072;2022-12-18T14:18:48;26.27;;;16.37;;
14235;SDS011;7202;50.718;7.072;2022-12-18T14:21:24;35.37;;;18.53;;
14235;SDS011;7202;50.718;7.072;2022-12-18T14:24:04;33.57;;;17.07;;
14235;SDS011;7202;50.718;7.072;2022-12-18T14:26:40;35.97;;;18.43;;
14235;SDS011;7202;50.718;7.072;2022-12-18T14:29:21;30.87;;;16.57;;
14235;SDS011;7202;50.718;7.072;2022-12-18T14:32:04;30.80;;;18.07;;
14235;SDS011;7202;50.718;7.072;2022-12-18T14:34:42;33.30;;;17.80;;
14235;SDS011;7202;50.718;7.072;2022-12-18T14:37:11;35.63;;;18.00;;
14235;SDS011;7202;50.718;7.072;2022-12-18T14:39:40;36.07;;;18.33;;
14235;SDS011;7202;50.718;7.072;2022-12-18T14:42:20;36.40;;;18.13;;
14235;SDS011;7202;50.718;7.072;2022-12-18T14:44:50;35.17;;;18.77;;
14235;SDS011;7202;50.718;7.072;2022-12-18T14:47:42;36.30;;;18.93;;
14235;SDS011;7202;50.718;7.072;2022-12-18T14:50:12;34.73;;;18.57;;
14235;SDS011;7202;50.718;7.072;2022-12-18T14:52:48;40.37;;;17.77;;
14235;SDS011;7202;50.718;7.072;2022-12-18T14:55:17;34.40;;;18.77;;
14235;SDS011;7202;50.718;7.072;2022-12-18T14:57:49;34.33;;;18.63;;
14235;SDS011;7202;50.718;7.072;2022-12-18T15:00:23;37.60;;;18.43;;
14235;SDS011;7202;50.718;7.072;2022-12-18T15:02:54;35.27;;;17.87;;
14235;SDS011;7202;50.718;7.072;2022-12-18T15:05:25;33.53;;;17.50;;
14235;SDS011;7202;50.718;7.072;2022-12-18T15:07:56;35.43;;;18.90;;
14235;SDS011;7202;50.718;7.072;2022-12-18T15:10:26;33.53;;;18.37;;
14235;SDS011;7202;50.718;7.072;2022-12-18T15:15:49;35.47;;;18.53;;
14235;SDS011;7202;50.718;7.072;2022-12-18T15:18:20;34.00;;;18.63;;
14235;SDS011;7202;50.718;7.072;2022-12-18T15:20:54;34.77;;;17.80;;
14235;SDS011;7202;50.718;7.072;2022-12-18T15:23:26;30.43;;;17.53;;
14235;SDS011;7202;50.718;7.072;2022-12-18T15:25:57;31.73;;;17.83;;